createdAt,value
2023-03-05T00:02:00.528Z,101441.59
2023-03-05T00:04:26.992Z,101439.09
2023-03-05T00:06:53.643Z,101436.31
2023-03-05T00:09:19.990Z,101430.78
2023-03-05T00:11:46.565Z,101429.97
2023-03-05T00:14:13.533Z,101433.56
2023-03-05T00:16:40.366Z,101427.50
2023-03-05T00:19:07.471Z,101422.78
2023-03-05T00:21:39.431Z,101425.03
2023-03-05T00:24:10.525Z,101415.06
2023-03-05T00:26:38.933Z,101412.63
2023-03-05T00:29:06.915Z,101414.25
2023-03-05T00:31:36.463Z,101409.03
2023-03-05T00:34:06.900Z,101409.03
2023-03-05T00:36:34.142Z,101409.03
2023-03-05T00:39:00.879Z,101408.19
2023-03-05T00:41:27.655Z,101401.84
2023-03-05T00:43:54.090Z,101401.00
2023-03-05T00:46:20.814Z,101388.25
2023-03-05T00:48:47.355Z,101384.16
2023-03-05T00:51:13.775Z,101385.59
2023-03-05T00:53:40.162Z,101383.16
2023-03-05T00:56:06.902Z,101367.66
2023-03-05T00:58:33.284Z,101368.25
2023-03-05T01:01:01.598Z,101370.84
2023-03-05T01:03:29.112Z,101374.75
2023-03-05T01:05:55.857Z,101377.03
2023-03-05T01:08:22.607Z,101369.88
2023-03-05T01:10:49.108Z,101366.56
2023-03-05T01:13:15.590Z,101371.78
2023-03-05T01:15:41.950Z,101369.88
2023-03-05T01:18:08.499Z,101364.31
2023-03-05T01:20:35.344Z,101351.25
2023-03-05T01:23:01.829Z,101366.25
2023-03-05T01:25:28.838Z,101348.78
2023-03-05T01:27:56.308Z,101349.09
2023-03-05T01:30:22.816Z,101346.66
2023-03-05T01:32:49.395Z,101348.59
2023-03-05T01:35:21.650Z,101338.13
2023-03-05T01:37:48.448Z,101345.31
2023-03-05T01:40:17.983Z,101334.84
2023-03-05T01:42:49.949Z,101330.41
2023-03-05T01:45:18.286Z,101323.56
2023-03-05T01:47:45.348Z,101323.84
2023-03-05T01:50:18.187Z,101345.06
2023-03-05T01:52:53.427Z,101332.97
2023-03-05T01:55:25.332Z,101335.72
2023-03-05T01:58:04.863Z,101334.41
2023-03-05T02:00:35.173Z,101320.53
2023-03-05T02:03:05.852Z,101321.66
2023-03-05T02:05:35.265Z,101312.53
2023-03-05T02:08:05.438Z,101321.16
2023-03-05T02:10:43.189Z,101304.34
2023-03-05T02:13:14.844Z,101320.66
2023-03-05T02:15:41.820Z,101307.09
2023-03-05T02:18:09.415Z,101312.13
2023-03-05T02:20:52.048Z,101308.38
2023-03-05T02:23:20.037Z,101306.91
2023-03-05T02:25:46.834Z,101305.28
2023-03-05T02:28:23.165Z,101299.25
2023-03-05T02:30:49.927Z,101295.63
2023-03-05T02:33:18.128Z,101286.00
2023-03-05T02:35:46.224Z,101285.16
2023-03-05T02:38:18.199Z,101285.78
2023-03-05T02:40:44.785Z,101275.84
2023-03-05T02:43:11.970Z,101279.22
2023-03-05T02:45:39.632Z,101274.00
2023-03-05T02:48:06.333Z,101275.16
2023-03-05T02:50:33.902Z,101267.13
2023-03-05T02:53:00.569Z,101267.13
2023-03-05T02:55:27.156Z,101269.91
2023-03-05T02:57:53.632Z,101263.53
2023-03-05T03:00:20.251Z,101261.91
2023-03-05T03:02:46.617Z,101263.03
2023-03-05T03:05:13.012Z,101252.28
2023-03-05T03:07:39.461Z,101264.19
2023-03-05T03:10:06.685Z,101257.50
2023-03-05T03:12:38.451Z,101249.78
2023-03-05T03:15:06.163Z,101248.69
2023-03-05T03:17:35.336Z,101253.38
2023-03-05T03:20:03.302Z,101232.06
2023-03-05T03:22:29.920Z,101239.53
2023-03-05T03:24:56.477Z,101229.28
2023-03-05T03:27:23.510Z,101222.06
2023-03-05T03:29:49.826Z,101209.34
2023-03-05T03:32:16.364Z,101218.47
2023-03-05T03:34:44.516Z,101213.59
2023-03-05T03:37:11.422Z,101216.38
2023-03-05T03:39:37.733Z,101209.47
2023-03-05T03:42:04.340Z,101207.84
2023-03-05T03:44:30.846Z,101211.44
2023-03-05T03:46:57.184Z,101197.56
2023-03-05T03:49:25.901Z,101194.00
2023-03-05T03:51:58.095Z,101196.44
2023-03-05T03:54:25.096Z,101190.88
2023-03-05T03:56:52.474Z,101187.31
2023-03-05T03:59:19.112Z,101180.94
2023-03-05T04:01:45.777Z,101186.50
2023-03-05T04:04:12.901Z,101176.53
2023-03-05T04:06:39.367Z,101176.53
2023-03-05T04:09:08.345Z,101168.53
2023-03-05T04:11:36.487Z,101166.88
2023-03-05T04:14:03.934Z,101170.81
2023-03-05T04:16:30.527Z,101169.16
2023-03-05T04:18:56.850Z,101167.53
2023-03-05T04:21:23.329Z,101160.66
2023-03-05T04:23:50.225Z,101167.34
2023-03-05T04:26:16.676Z,101156.56
2023-03-05T04:28:43.098Z,101159.66
2023-03-05T04:31:09.728Z,101154.09
2023-03-05T04:33:36.099Z,101156.88
2023-03-05T04:36:02.743Z,101167.97
2023-03-05T04:38:29.122Z,101162.41
2023-03-05T04:40:55.460Z,101152.47
2023-03-05T04:43:22.231Z,101163.56
2023-03-05T04:45:48.808Z,101158.00
2023-03-05T04:48:15.408Z,101151.97
2023-03-05T04:50:41.975Z,101160.28
2023-03-05T04:53:08.478Z,101154.75
2023-03-05T04:55:34.849Z,101163.06
2023-03-05T04:58:01.452Z,101155.56
2023-03-05T05:00:27.839Z,101159.16
2023-03-05T05:02:54.289Z,101155.25
2023-03-05T05:05:25.779Z,101157.19
2023-03-05T05:07:56.760Z,101148.88
2023-03-05T05:10:24.353Z,101146.94
2023-03-05T05:12:50.774Z,101146.44
2023-03-05T05:15:17.510Z,101139.22
2023-03-05T05:17:44.321Z,101142.66
2023-03-05T05:20:12.801Z,101144.06
2023-03-05T05:22:39.315Z,101147.16
2023-03-05T05:25:06.106Z,101131.66
2023-03-05T05:27:32.506Z,101136.50
2023-03-05T05:29:59.187Z,101127.00
2023-03-05T05:32:25.780Z,101124.84
2023-03-05T05:34:56.638Z,101131.31
2023-03-05T05:37:23.550Z,101117.81
2023-03-05T05:39:50.864Z,101117.31
2023-03-05T05:42:18.259Z,101111.25
2023-03-05T05:44:44.740Z,101108.47
2023-03-05T05:47:11.717Z,101101.81
2023-03-05T05:49:38.452Z,101112.88
2023-03-05T05:52:05.395Z,101118.41
2023-03-05T05:54:31.817Z,101125.91
2023-03-05T05:56:58.204Z,101118.75
2023-03-05T05:59:24.850Z,101119.56
2023-03-05T06:01:51.363Z,101127.06
2023-03-05T06:04:17.841Z,101120.69
2023-03-05T06:06:44.140Z,101127.06
2023-03-05T06:09:10.767Z,101121.50
2023-03-05T06:11:38.333Z,101115.66
2023-03-05T06:14:04.981Z,101117.59
2023-03-05T06:16:31.496Z,101112.06
2023-03-05T06:18:58.136Z,101110.09
2023-03-05T06:21:24.770Z,101111.25
2023-03-05T06:23:51.704Z,101115.97
2023-03-05T06:26:20.169Z,101107.16
2023-03-05T06:28:46.540Z,101103.75
2023-03-05T06:31:16.758Z,101100.69
2023-03-05T06:33:44.101Z,101100.69
2023-03-05T06:36:13.878Z,101105.09
2023-03-05T06:38:40.778Z,101098.41
2023-03-05T06:41:11.362Z,101103.63
2023-03-05T06:43:40.717Z,101105.28
2023-03-05T06:46:20.892Z,101098.91
2023-03-05T06:48:48.549Z,101109.38
2023-03-05T06:51:19.591Z,101109.69
2023-03-05T06:53:49.302Z,101110.50
2023-03-05T06:56:16.918Z,101100.56
2023-03-05T06:58:45.727Z,101101.69
2023-03-05T07:01:12.499Z,101103.34
2023-03-05T07:03:40.583Z,101109.69
2023-03-05T07:06:09.410Z,101101.88
2023-03-05T07:08:37.308Z,101103.22
2023-03-05T07:11:04.982Z,101105.31
2023-03-05T07:13:31.302Z,101103.38
2023-03-05T07:15:57.892Z,101095.06
2023-03-05T07:18:24.518Z,101093.97
2023-03-05T07:20:50.875Z,101094.78
2023-03-05T07:23:17.417Z,101094.94
2023-03-05T07:25:43.773Z,101082.75
2023-03-05T07:28:10.753Z,101084.88
2023-03-05T07:30:37.167Z,101087.81
2023-03-05T07:33:03.548Z,101081.16
2023-03-05T07:35:29.868Z,101083.66
2023-03-05T07:37:56.260Z,101079.75
2023-03-05T07:40:22.755Z,101084.13
2023-03-05T07:42:49.384Z,101081.69
2023-03-05T07:45:16.028Z,101069.78
2023-03-05T07:47:42.384Z,101070.91
2023-03-05T07:50:09.391Z,101077.56
2023-03-05T07:52:35.747Z,101071.19
2023-03-05T07:55:02.147Z,101067.31
2023-03-05T07:57:28.791Z,101071.72
2023-03-05T07:59:55.187Z,101063.41
2023-03-05T08:02:21.802Z,101062.28
2023-03-05T08:04:48.398Z,101061.47
2023-03-05T08:07:16.411Z,101062.28
2023-03-05T08:09:42.922Z,101057.56
2023-03-05T08:12:10.623Z,101060.00
2023-03-05T08:14:37.635Z,101060.53
2023-03-05T08:17:05.612Z,101057.09
2023-03-05T08:19:32.981Z,101055.34
2023-03-05T08:21:59.909Z,101049.97
2023-03-05T08:24:29.644Z,101054.06
2023-03-05T08:26:57.438Z,101052.63
2023-03-05T08:29:24.567Z,101042.53
2023-03-05T08:31:51.446Z,101042.69
2023-03-05T08:34:17.863Z,101042.88
2023-03-05T08:36:44.199Z,101041.44
2023-03-05T08:39:10.555Z,101039.66
2023-03-05T08:41:36.976Z,101040.94
2023-03-05T08:44:03.857Z,101041.94
2023-03-05T08:46:30.715Z,101033.00
2023-03-05T08:48:57.087Z,101037.88
2023-03-05T08:51:25.992Z,101026.97
2023-03-05T08:53:54.314Z,101031.03
2023-03-05T08:56:23.626Z,101026.00
2023-03-05T08:58:51.613Z,101030.09
2023-03-05T09:01:18.177Z,101030.91
2023-03-05T09:03:44.555Z,101025.03
2023-03-05T09:06:12.570Z,101022.75
2023-03-05T09:08:39.704Z,101019.69
2023-03-05T09:11:08.714Z,101024.56
2023-03-05T09:13:35.818Z,101021.16
2023-03-05T09:16:05.716Z,101016.09
2023-03-05T09:18:33.502Z,101018.22
2023-03-05T09:21:04.853Z,101015.44
2023-03-05T09:23:31.424Z,101012.00
2023-03-05T09:25:59.044Z,101008.13
2023-03-05T09:28:25.395Z,101011.88
2023-03-05T09:30:51.714Z,101015.94
2023-03-05T09:33:18.298Z,101003.88
2023-03-05T09:35:44.750Z,101002.91
2023-03-05T09:38:13.362Z,101001.94
2023-03-05T09:40:52.512Z,101012.38
2023-03-05T09:43:55.203Z,101000.94
2023-03-05T09:46:58.250Z,101002.25
2023-03-05T09:49:51.002Z,101000.28
2023-03-05T09:52:30.951Z,100991.66
2023-03-05T09:54:57.927Z,100995.41
2023-03-05T09:57:32.440Z,100988.19
2023-03-05T10:00:33.732Z,100992.63
2023-03-05T10:03:05.107Z,100995.25
2023-03-05T10:05:48.079Z,100983.00
2023-03-05T10:08:18.961Z,100989.53
2023-03-05T10:10:50.358Z,100982.00
2023-03-05T10:13:24.571Z,100973.69
2023-03-05T10:16:32.123Z,100970.56
2023-03-05T10:19:18.636Z,100979.88
2023-03-05T10:22:11.543Z,100974.97
2023-03-05T10:24:45.978Z,100970.38
2023-03-05T10:27:20.322Z,100969.41
2023-03-05T10:30:06.145Z,100958.47
2023-03-05T10:32:40.100Z,100958.28
2023-03-05T10:35:18.348Z,100952.41
2023-03-05T10:38:00.779Z,100946.22
2023-03-05T10:40:40.838Z,100945.22
2023-03-05T10:43:13.048Z,100945.34
2023-03-05T10:45:43.249Z,100940.44
2023-03-05T10:48:40.613Z,100945.81
2023-03-05T10:51:27.897Z,100947.75
2023-03-05T10:54:29.950Z,100933.34
2023-03-05T10:57:23.164Z,100934.78
2023-03-05T10:59:54.361Z,100929.84
2023-03-05T11:02:22.681Z,100926.41
2023-03-05T11:04:50.075Z,100922.94
2023-03-05T11:07:16.431Z,100915.91
2023-03-05T11:10:04.386Z,100913.94
2023-03-05T11:12:37.104Z,100909.69
2023-03-05T11:15:09.480Z,100908.84
2023-03-05T11:17:44.959Z,100905.25
2023-03-05T11:20:35.272Z,100906.41
2023-03-05T11:23:17.946Z,100901.34
2023-03-05T11:26:10.417Z,100904.25
2023-03-05T11:28:55.011Z,100892.94
2023-03-05T11:31:24.726Z,100887.97
2023-03-05T11:33:56.742Z,100895.19
2023-03-05T11:36:31.719Z,100886.16
2023-03-05T11:39:05.950Z,100887.81
2023-03-05T11:41:35.708Z,100881.91
2023-03-05T11:44:07.145Z,100891.19
2023-03-05T11:46:41.818Z,100876.00
2023-03-05T11:49:11.529Z,100872.53
2023-03-05T11:51:38.000Z,100874.16
2023-03-05T11:54:09.024Z,100877.75
2023-03-05T11:56:37.166Z,100874.63
2023-03-05T11:59:12.346Z,100865.81
2023-03-05T12:01:45.714Z,100856.31
2023-03-05T12:04:12.186Z,100850.09
2023-03-05T12:06:47.144Z,100848.56
2023-03-05T12:09:23.547Z,100855.28
2023-03-05T12:11:55.856Z,100845.47
2023-03-05T12:14:35.045Z,100844.66
2023-03-05T12:17:16.850Z,100842.34
2023-03-05T12:19:55.518Z,100836.91
2023-03-05T12:22:31.940Z,100835.41
2023-03-05T12:25:24.379Z,100830.34
2023-03-05T12:27:51.055Z,100815.88
2023-03-05T12:30:35.912Z,100815.88
2023-03-05T12:33:26.201Z,100820.06
2023-03-05T12:35:52.564Z,100812.19
2023-03-05T12:38:41.558Z,100809.63
2023-03-05T12:41:32.902Z,100803.09
2023-03-05T12:44:05.531Z,100803.78
2023-03-05T12:46:35.687Z,100800.06
2023-03-05T12:49:20.472Z,100797.81
2023-03-05T12:51:49.102Z,100788.66
2023-03-05T12:54:32.478Z,100784.25
2023-03-05T12:57:02.712Z,100781.13
2023-03-05T12:59:39.322Z,100777.06
2023-03-05T13:02:34.566Z,100761.19
2023-03-05T13:05:07.494Z,100764.59
2023-03-05T13:07:34.229Z,100764.69
2023-03-05T13:10:00.689Z,100753.25
2023-03-05T13:12:30.352Z,100755.31
2023-03-05T13:15:04.875Z,100754.28
2023-03-05T13:17:38.490Z,100744.09
2023-03-05T13:20:38.304Z,100747.38
2023-03-05T13:23:08.977Z,100742.41
2023-03-05T13:25:35.271Z,100730.56
2023-03-05T13:28:11.349Z,100727.78
2023-03-05T13:30:38.156Z,100725.13
2023-03-05T13:33:05.775Z,100729.53
2023-03-05T13:35:33.985Z,100721.16
2023-03-05T13:38:02.220Z,100720.13
2023-03-05T13:40:31.781Z,100727.34
2023-03-05T13:43:12.460Z,100715.38
2023-03-05T13:45:40.269Z,100712.75
2023-03-05T13:48:07.286Z,100711.13
2023-03-05T13:50:38.099Z,100705.06
2023-03-05T13:53:15.843Z,100698.22
2023-03-05T13:55:42.569Z,100688.69
2023-03-05T13:58:48.374Z,100688.25
2023-03-05T14:01:21.958Z,100682.13
2023-03-05T14:03:53.786Z,100683.41
2023-03-05T14:06:22.668Z,100676.31
2023-03-05T14:08:55.013Z,100677.13
2023-03-05T14:11:21.504Z,100672.38
2023-03-05T14:13:49.089Z,100667.66
2023-03-05T14:16:41.848Z,100673.09
2023-03-05T14:19:31.842Z,100668.78
2023-03-05T14:21:58.199Z,100660.91
2023-03-05T14:24:28.622Z,100654.19
2023-03-05T14:27:05.707Z,100654.53
2023-03-05T14:29:32.854Z,100649.78
2023-03-05T14:32:04.196Z,100644.53
2023-03-05T14:34:31.979Z,100635.84
2023-03-05T14:37:04.661Z,100643.41
2023-03-05T14:39:50.613Z,100634.25
2023-03-05T14:42:32.138Z,100619.84
2023-03-05T14:45:02.141Z,100624.22
2023-03-05T14:47:28.998Z,100611.59
2023-03-05T14:49:55.483Z,100613.22
2023-03-05T14:52:23.906Z,100620.88
2023-03-05T14:54:50.917Z,100609.03
2023-03-05T14:57:21.161Z,100606.25
2023-03-05T14:59:47.617Z,100595.59
2023-03-05T15:02:19.426Z,100595.09
2023-03-05T15:04:46.568Z,100591.06
2023-03-05T15:07:23.101Z,100598.13
2023-03-05T15:09:49.481Z,100583.06
2023-03-05T15:12:16.470Z,100587.81
2023-03-05T15:14:43.689Z,100577.84
2023-03-05T15:17:18.649Z,100574.94
2023-03-05T15:19:47.106Z,100577.38
2023-03-05T15:22:14.260Z,100575.78
2023-03-05T15:24:40.656Z,100572.50
2023-03-05T15:27:07.095Z,100567.28
2023-03-05T15:29:33.985Z,100557.31
2023-03-05T15:32:01.949Z,100562.09
2023-03-05T15:34:29.378Z,100559.31
2023-03-05T15:36:56.099Z,100560.91
2023-03-05T15:39:26.454Z,100553.72
2023-03-05T15:41:53.282Z,100560.44
2023-03-05T15:44:21.006Z,100552.44
2023-03-05T15:46:47.484Z,100548.84
2023-03-05T15:49:14.646Z,100548.00
2023-03-05T15:51:41.278Z,100550.78
2023-03-05T15:54:07.681Z,100539.19
2023-03-05T15:56:34.162Z,100537.56
2023-03-05T15:59:01.235Z,100541.50
2023-03-05T16:01:27.968Z,100539.91
2023-03-05T16:03:54.490Z,100526.31
2023-03-05T16:06:23.842Z,100527.16
2023-03-05T16:08:54.999Z,100531.06
2023-03-05T16:11:21.953Z,100519.13
2023-03-05T16:13:50.515Z,100523.88
2023-03-05T16:16:17.881Z,100526.66
2023-03-05T16:18:45.943Z,100527.59
2023-03-05T16:21:13.751Z,100520.75
2023-03-05T16:23:40.267Z,100508.34
2023-03-05T16:26:08.353Z,100519.84
2023-03-05T16:28:34.750Z,100510.22
2023-03-05T16:31:01.816Z,100511.38
2023-03-05T16:33:28.214Z,100505.34
2023-03-05T16:36:20.711Z,100501.97
2023-03-05T16:38:51.812Z,100501.66
2023-03-05T16:41:22.005Z,100501.66
2023-03-05T16:43:50.599Z,100500.00
2023-03-05T16:46:17.266Z,100496.41
2023-03-05T16:48:44.348Z,100494.00
2023-03-05T16:51:11.982Z,100490.72
2023-03-05T16:53:39.326Z,100495.03
2023-03-05T16:56:08.173Z,100492.13
2023-03-05T16:58:35.942Z,100488.91
2023-03-05T17:01:03.420Z,100483.22
2023-03-05T17:03:30.189Z,100487.16
2023-03-05T17:05:56.587Z,100486.69
2023-03-05T17:08:24.369Z,100474.28
2023-03-05T17:10:51.280Z,100477.44
2023-03-05T17:13:18.018Z,100486.91
2023-03-05T17:15:44.419Z,100480.47
2023-03-05T17:18:11.137Z,100485.91
2023-03-05T17:20:37.461Z,100479.84
2023-03-05T17:23:04.151Z,100477.44
2023-03-05T17:25:30.783Z,100480.91
2023-03-05T17:27:57.172Z,100475.69
2023-03-05T17:30:23.727Z,100475.25
2023-03-05T17:32:53.934Z,100473.13
2023-03-05T17:35:22.101Z,100472.69
2023-03-05T17:37:49.085Z,100467.81
2023-03-05T17:40:16.452Z,100468.16
2023-03-05T17:42:43.067Z,100470.47
2023-03-05T17:45:10.103Z,100468.41
2023-03-05T17:47:36.931Z,100459.56
2023-03-05T17:50:04.201Z,100468.28
2023-03-05T17:52:31.276Z,100477.78
2023-03-05T17:54:58.435Z,100470.91
2023-03-05T17:57:26.050Z,100473.69
2023-03-05T17:59:52.668Z,100473.25
2023-03-05T18:02:19.239Z,100465.22
2023-03-05T18:04:47.786Z,100464.44
2023-03-05T18:07:14.174Z,100465.22
2023-03-05T18:09:40.759Z,100463.75
2023-03-05T18:12:07.115Z,100464.09
2023-03-05T18:14:33.679Z,100461.66
2023-03-05T18:17:00.234Z,100463.97
2023-03-05T18:19:26.813Z,100459.91
2023-03-05T18:21:53.484Z,100457.84
2023-03-05T18:24:19.984Z,100458.16
2023-03-05T18:26:46.575Z,100464.06
2023-03-05T18:29:13.201Z,100460.47
2023-03-05T18:31:39.595Z,100466.41
2023-03-05T18:34:05.986Z,100452.00
2023-03-05T18:36:33.011Z,100452.38
2023-03-05T18:38:59.610Z,100448.31
2023-03-05T18:41:28.097Z,100442.28
2023-03-05T18:43:55.295Z,100445.41
2023-03-05T18:46:21.754Z,100444.94
2023-03-05T18:48:48.411Z,100440.53
2023-03-05T18:51:19.701Z,100448.44
2023-03-05T18:53:46.211Z,100436.16
2023-03-05T18:56:14.198Z,100439.28
2023-03-05T18:58:40.801Z,100431.25
2023-03-05T19:01:08.419Z,100434.03
2023-03-05T19:03:35.648Z,100427.69
2023-03-05T19:06:05.282Z,100425.59
2023-03-05T19:08:31.662Z,100422.81
2023-03-05T19:10:58.086Z,100427.56
2023-03-05T19:13:34.642Z,100426.75
2023-03-05T19:16:11.924Z,100420.38
2023-03-05T19:18:44.094Z,100419.22
2023-03-05T19:21:10.683Z,100415.19
2023-03-05T19:23:37.126Z,100413.56
2023-03-05T19:26:04.023Z,100413.88
2023-03-05T19:28:30.391Z,100407.53
2023-03-05T19:30:56.856Z,100412.25
2023-03-05T19:33:25.050Z,100404.59
2023-03-05T19:35:51.612Z,100399.91
2023-03-05T19:38:17.997Z,100397.13
2023-03-05T19:40:44.460Z,100401.84
2023-03-05T19:43:11.052Z,100394.66
2023-03-05T19:45:37.449Z,100396.97
2023-03-05T19:48:04.187Z,100392.59
2023-03-05T19:50:32.277Z,100386.88
2023-03-05T19:52:59.791Z,100389.66
2023-03-05T19:55:26.351Z,100391.94
2023-03-05T19:57:52.723Z,100383.97
2023-03-05T20:00:19.704Z,100387.91
2023-03-05T20:02:46.108Z,100379.94
2023-03-05T20:05:12.696Z,100386.63
2023-03-05T20:07:39.057Z,100383.38
2023-03-05T20:10:05.970Z,100382.22
2023-03-05T20:12:33.554Z,100378.63
2023-03-05T20:15:00.134Z,100378.28
2023-03-05T20:17:26.766Z,100377.81
2023-03-05T20:19:55.302Z,100378.63
2023-03-05T20:22:21.773Z,100376.66
2023-03-05T20:24:48.136Z,100374.38
2023-03-05T20:27:14.452Z,100373.88
2023-03-05T20:29:40.893Z,100376.22
2023-03-05T20:32:07.256Z,100374.09
2023-03-05T20:34:33.830Z,100367.28
2023-03-05T20:37:00.521Z,100371.56
2023-03-05T20:39:26.850Z,100370.28
2023-03-05T20:41:53.268Z,100361.47
2023-03-05T20:44:19.634Z,100369.66
2023-03-05T20:46:59.464Z,100358.09
2023-03-05T20:49:26.093Z,100356.81
2023-03-05T20:51:52.399Z,100350.00
2023-03-05T20:54:19.434Z,100353.44
2023-03-05T20:56:46.255Z,100356.59
2023-03-05T20:59:13.070Z,100353.34
2023-03-05T21:01:40.579Z,100348.47
2023-03-05T21:04:08.020Z,100344.06
2023-03-05T21:06:35.050Z,100339.66
2023-03-05T21:09:02.420Z,100334.00
2023-03-05T21:11:28.982Z,100324.06
2023-03-05T21:13:55.482Z,100332.72
2023-03-05T21:16:25.215Z,100330.63
2023-03-05T21:18:52.044Z,100329.47
2023-03-05T21:21:20.546Z,100324.25
2023-03-05T21:23:47.109Z,100315.91
2023-03-05T21:26:13.961Z,100314.78
2023-03-05T21:28:41.228Z,100308.75
2023-03-05T21:31:16.789Z,100305.41
2023-03-05T21:33:43.506Z,100305.41
2023-03-05T21:36:10.146Z,100306.91
2023-03-05T21:38:36.892Z,100298.09
2023-03-05T21:41:03.851Z,100295.66
2023-03-05T21:43:31.411Z,100294.88
2023-03-05T21:45:59.673Z,100293.25
2023-03-05T21:48:26.177Z,100294.72
2023-03-05T21:50:53.001Z,100295.88
2023-03-05T21:53:19.820Z,100285.94
2023-03-05T21:56:04.169Z,100283.84
2023-03-05T21:58:34.485Z,100273.09
2023-03-05T22:01:01.392Z,100269.16
2023-03-05T22:03:29.164Z,100269.53
2023-03-05T22:05:56.456Z,100264.78
2023-03-05T22:08:23.776Z,100255.66
2023-03-05T22:10:50.513Z,100256.78
2023-03-05T22:13:17.913Z,100252.03
2023-03-05T22:15:52.723Z,100255.97
2023-03-05T22:18:25.352Z,100242.09
2023-03-05T22:20:52.623Z,100232.97
2023-03-05T22:23:22.059Z,100239.69
2023-03-05T22:25:58.900Z,100232.84
2023-03-05T22:28:26.133Z,100229.75
2023-03-05T22:30:52.776Z,100218.50
2023-03-05T22:33:21.904Z,100217.72
2023-03-05T22:35:49.338Z,100218.88
2023-03-05T22:38:15.963Z,100209.75
2023-03-05T22:40:44.633Z,100216.41
2023-03-05T22:43:12.231Z,100214.44
2023-03-05T22:45:38.646Z,100209.75
2023-03-05T22:48:05.514Z,100197.00
2023-03-05T22:50:31.836Z,100198.66
2023-03-05T22:52:58.250Z,100203.34
2023-03-05T22:55:24.678Z,100202.53
2023-03-05T22:57:51.323Z,100199.44
2023-03-05T23:00:21.615Z,100198.66
2023-03-05T23:02:48.121Z,100187.19
2023-03-05T23:05:14.970Z,100188.81
2023-03-05T23:07:42.749Z,100187.66
2023-03-05T23:10:16.184Z,100184.88
2023-03-05T23:12:46.185Z,100179.34
2023-03-05T23:15:15.997Z,100177.38
2023-03-05T23:17:42.813Z,100179.34
2023-03-05T23:20:11.502Z,100179.34
2023-03-05T23:22:39.371Z,100180.13
2023-03-05T23:25:07.096Z,100171.81
2023-03-05T23:27:33.531Z,100170.34
2023-03-05T23:30:25.580Z,100163.63
2023-03-05T23:33:01.960Z,100168.38
2023-03-05T23:35:31.142Z,100166.03
2023-03-05T23:38:00.136Z,100159.69
2023-03-05T23:40:30.248Z,100160.50
2023-03-05T23:42:56.878Z,100153.00
2023-03-05T23:45:23.632Z,100147.47
2023-03-05T23:47:51.617Z,100149.88
2023-03-05T23:50:26.763Z,100151.03
2023-03-05T23:52:54.338Z,100143.53
2023-03-05T23:55:24.435Z,100142.72
2023-03-05T23:57:52.225Z,100143.53
